Share

Toyama Airport, Japan

12:03 PM JST on April 24, 2014 (GMT +0900)
Toyama (RJNT) Elev 89 ft | 36.65 °N, 137.19 °E | Change Station

Current weather conditions updated 1 hour ago

Partly Cloudy
Partly Cloudy
61 °F
Feels Like 61 °F
N
8
Wind Variable Wind from North
Sunrise 5:06 AM
Sunset 6:33 PM
Moon Waning Crescent

Today is forecast to be nearly the same temperature as yesterday.

Pressure 30.24 in
Visibility 6.2 miles
Clouds Few 4000 ft
Dew Point 43 °F
Humidity 52%
Rainfall 0.00 in
Snow Depth Not available.
UV 9 out of 16
Pollen Not available.
Air Quality Not available.
Flu Activity Not available.
METAR RJNT 240200Z 35007KT 320V030 9999 FEW040 16/06 Q1024

More Conditions Fewer Conditions

Pressure 30.24 in
Visibility 6.2 miles
Clouds Few 4000 ft
Dew Point 43 °F
Humidity 52%
Rainfall 0.00 in
Snow Depth Not available.
UV 9 out of 16
Pollen Not available.
Air Quality Not available.
Flu Activity Not available.
METAR RJNT 240200Z 35007KT 320V030 9999 FEW040 16/06 Q1024

More Conditions Fewer Conditions

10-Day Weather Forecast

Almanac

Astronomy

Apr. 24, 2014 Rise Set
Actual Time 5:06 AM JST 6:33 PM JST
Civil Twilight 4:39 AM JST 7:00 PM JST
Nautical Twilight 4:06 AM JST 7:32 PM JST
Astronomical Twilight 3:32 AM JST 8:07 PM JST
Moon 1:44 AM JST 1:14 PM JST
Length of Visible Light 14h 20m
Length of Day
13h 26m
Tomorrow will be 2m 7s longer.
Waning Crescent, 30% of the Moon is Illuminated
Apr 23
Waning Crescent
Apr 29
New
May 6
First Quarter
May 14
Full
May 21
Last Quarter

Yesterday's Extremes

Country Highs Country Lows

Community

  • Nestled In
    Nestled In
  • Stunning Sunrise
    Stunning Sunrise
  • spring flowers
    spring flowers
  • Earth Day Spectrum Ove' Blue
    Earth Day Spectrum Ove' Blue
  • BARN B&W
    BARN B&W

WunderPhotos

Upload Photos

1,704,525 photos uploaded!

WunderBlogs® & News

Nearby

Snow Depth

Not available.

Coastal Water Temperatures

Place Temperature
No Stations Reporting

Earthquake Activity

City Distance Mag. Time & Date
No recent earthquake activity has been reported nearby.
Minimum magnitude displayed is 2.5.

Nearby Weather Stations

Station Location Temp. Heat Index Dew Point Humidity Wind Precip. Elev Updated Type
JR9MAR-WX, TONAMI 71.5 °F 75 °F 31 °F 22% WNW  at  1.3 mph 0.00 in / hr 325 ft 12:03 PM JST Rapid Fire

Show More Stations Show Fewer Stations

What do you think?

We're not finished. Please let us know what you like, what you don't like, and what you are still missing.